createdAt,value
2017-02-14T00:00:16.984Z,0
2017-02-14T00:00:57.476Z,0
2017-02-14T00:01:37.967Z,0
2017-02-14T00:02:18.468Z,0
2017-02-14T00:02:58.954Z,0
2017-02-14T00:03:39.445Z,0
2017-02-14T00:04:19.945Z,0
2017-02-14T00:05:00.433Z,0
2017-02-14T00:05:40.921Z,0
2017-02-14T00:06:21.410Z,0
2017-02-14T00:07:01.914Z,0
2017-02-14T00:07:42.419Z,0
2017-02-14T00:08:22.908Z,0
2017-02-14T00:09:03.396Z,0
2017-02-14T00:09:43.888Z,0
2017-02-14T00:10:24.385Z,0
2017-02-14T00:11:04.870Z,0
2017-02-14T00:11:45.387Z,0
2017-02-14T00:12:25.876Z,0
2017-02-14T00:13:06.364Z,0
2017-02-14T00:13:46.876Z,0
2017-02-14T00:14:27.380Z,0
2017-02-14T00:15:07.872Z,0
2017-02-14T00:15:48.358Z,0
2017-02-14T00:16:28.841Z,0
2017-02-14T00:17:09.329Z,0
2017-02-14T00:17:49.827Z,0
2017-02-14T00:18:30.323Z,0
2017-02-14T00:19:10.829Z,0
2017-02-14T00:19:51.317Z,0
2017-02-14T00:20:31.809Z,0
2017-02-14T00:21:12.318Z,0
2017-02-14T00:21:52.827Z,0
2017-02-14T00:22:33.313Z,0
2017-02-14T00:23:13.799Z,0
2017-02-14T00:23:54.293Z,0
2017-02-14T00:24:34.787Z,0
2017-02-14T00:25:15.276Z,0
2017-02-14T00:25:55.744Z,0
2017-02-14T00:26:36.276Z,0
2017-02-14T00:27:16.768Z,0
2017-02-14T00:27:57.268Z,0
2017-02-14T00:28:37.763Z,0
2017-02-14T00:29:18.384Z,0
2017-02-14T00:29:58.761Z,0
2017-02-14T00:30:39.267Z,0
2017-02-14T00:31:19.757Z,0
2017-02-14T00:32:00.247Z,0
2017-02-14T00:32:40.737Z,0
2017-02-14T00:33:21.242Z,0
2017-02-14T00:34:01.732Z,0
2017-02-14T00:34:42.228Z,0
2017-02-14T00:35:22.714Z,0
2017-02-14T00:36:03.206Z,0
2017-02-14T00:36:43.710Z,0
2017-02-14T00:37:24.206Z,0
2017-02-14T00:38:04.710Z,0
2017-02-14T00:38:45.216Z,0
2017-02-14T00:39:25.689Z,0
2017-02-14T00:40:06.199Z,0
2017-02-14T00:40:46.704Z,0
2017-02-14T00:41:27.234Z,0
2017-02-14T00:42:07.713Z,0
2017-02-14T00:42:48.207Z,0
2017-02-14T00:43:28.704Z,0
2017-02-14T00:44:09.194Z,0
2017-02-14T00:44:49.685Z,0
2017-02-14T00:45:30.198Z,0
2017-02-14T00:46:10.698Z,0
2017-02-14T00:46:51.190Z,0
2017-02-14T00:47:31.700Z,0
2017-02-14T00:48:12.172Z,0
2017-02-14T00:48:52.660Z,0
2017-02-14T00:49:33.150Z,0
2017-02-14T00:50:13.648Z,0
2017-02-14T00:50:54.145Z,0
2017-02-14T00:51:34.635Z,0
2017-02-14T00:52:15.120Z,0
2017-02-14T00:52:55.616Z,0
2017-02-14T00:53:36.112Z,0
2017-02-14T00:54:16.601Z,0
2017-02-14T00:54:57.094Z,0
2017-02-14T00:55:37.588Z,0
2017-02-14T00:56:18.078Z,0
2017-02-14T00:56:58.565Z,0
2017-02-14T00:57:39.052Z,0
2017-02-14T00:58:19.540Z,0
2017-02-14T00:59:00.035Z,0
2017-02-14T00:59:40.519Z,0
2017-02-14T01:00:21.018Z,0
2017-02-14T01:01:01.526Z,0
2017-02-14T01:01:42.012Z,0
2017-02-14T01:02:22.502Z,0
2017-02-14T01:03:03.003Z,0
2017-02-14T01:03:43.495Z,0
2017-02-14T01:04:23.994Z,0
2017-02-14T01:05:04.484Z,0
2017-02-14T01:05:44.979Z,0
2017-02-14T01:06:25.476Z,0
2017-02-14T01:07:05.978Z,0
2017-02-14T01:07:46.479Z,0
2017-02-14T01:08:26.965Z,0
2017-02-14T01:09:07.451Z,0
2017-02-14T01:09:47.935Z,0
2017-02-14T01:10:28.440Z,0
2017-02-14T01:11:08.929Z,0
2017-02-14T01:11:49.421Z,0
2017-02-14T01:12:29.920Z,0
2017-02-14T01:13:10.409Z,0
2017-02-14T01:13:50.894Z,0
2017-02-14T01:14:31.381Z,0
2017-02-14T01:15:11.872Z,0
2017-02-14T01:15:52.366Z,0
2017-02-14T01:16:32.855Z,0
2017-02-14T01:17:13.340Z,0
2017-02-14T01:17:53.821Z,0
2017-02-14T01:18:34.312Z,0
2017-02-14T01:19:14.813Z,0
2017-02-14T01:19:55.307Z,0
2017-02-14T01:20:35.808Z,0
2017-02-14T01:21:16.298Z,0
2017-02-14T01:21:56.786Z,0
2017-02-14T01:22:37.267Z,0
2017-02-14T01:23:17.763Z,0
2017-02-14T01:23:58.256Z,0
2017-02-14T01:24:38.741Z,0
2017-02-14T01:25:19.231Z,0
2017-02-14T01:25:59.719Z,0
2017-02-14T01:26:40.222Z,0
2017-02-14T01:27:20.714Z,0
2017-02-14T01:28:01.203Z,0
2017-02-14T01:28:41.704Z,0
2017-02-14T01:29:22.187Z,0
2017-02-14T01:30:02.675Z,0
2017-02-14T01:30:43.169Z,0
2017-02-14T01:31:23.668Z,0
2017-02-14T01:32:04.153Z,0
2017-02-14T01:32:44.648Z,0
2017-02-14T01:33:25.147Z,0
2017-02-14T01:34:05.633Z,0
2017-02-14T01:34:46.129Z,0
2017-02-14T01:35:26.639Z,0
2017-02-14T01:36:07.118Z,0
2017-02-14T01:36:47.622Z,0
2017-02-14T01:37:28.106Z,0
2017-02-14T01:38:08.593Z,0
2017-02-14T01:38:49.082Z,0
2017-02-14T01:39:29.595Z,0
2017-02-14T01:40:10.087Z,0
2017-02-14T01:40:50.588Z,0
2017-02-14T01:41:31.083Z,0
2017-02-14T01:42:11.585Z,0
2017-02-14T01:42:52.074Z,0
2017-02-14T01:43:32.569Z,0
2017-02-14T01:44:13.080Z,0
2017-02-14T01:44:53.582Z,0
2017-02-14T01:45:34.078Z,0
2017-02-14T01:46:14.582Z,0
2017-02-14T01:46:55.070Z,0
2017-02-14T01:47:35.563Z,0
2017-02-14T01:48:16.067Z,0
2017-02-14T01:48:56.554Z,0
2017-02-14T01:49:37.037Z,0
2017-02-14T01:50:17.527Z,0
2017-02-14T01:50:58.029Z,0
2017-02-14T01:51:38.513Z,0
2017-02-14T01:52:19.004Z,0
2017-02-14T01:52:59.482Z,0
2017-02-14T01:53:39.973Z,0
2017-02-14T01:54:20.472Z,0
2017-02-14T01:55:00.968Z,0
2017-02-14T01:55:41.467Z,0
2017-02-14T01:56:21.948Z,0
2017-02-14T01:57:02.435Z,0
2017-02-14T01:57:42.922Z,0
2017-02-14T01:58:23.409Z,0
2017-02-14T01:59:03.896Z,0
2017-02-14T01:59:44.386Z,0
2017-02-14T02:00:25.040Z,0
2017-02-14T02:01:05.546Z,0
2017-02-14T02:01:46.027Z,0
2017-02-14T02:02:26.536Z,0
2017-02-14T02:03:07.023Z,0
2017-02-14T02:03:47.516Z,0
2017-02-14T02:04:28.014Z,0
2017-02-14T02:05:08.516Z,0
2017-02-14T02:05:49.013Z,0
2017-02-14T02:06:29.493Z,0
2017-02-14T02:07:09.981Z,0
2017-02-14T02:07:50.466Z,0
2017-02-14T02:08:30.980Z,0
2017-02-14T02:09:11.474Z,0
2017-02-14T02:09:51.974Z,0
2017-02-14T02:10:32.462Z,0
2017-02-14T02:11:12.958Z,0
2017-02-14T02:11:53.460Z,0
2017-02-14T02:12:33.946Z,0
2017-02-14T02:13:14.431Z,0
2017-02-14T02:13:54.917Z,0
2017-02-14T02:14:35.409Z,0
2017-02-14T02:15:15.904Z,0
2017-02-14T02:15:56.393Z,0
2017-02-14T02:16:36.889Z,0
2017-02-14T02:17:17.397Z,0
2017-02-14T02:17:57.901Z,0
2017-02-14T02:18:38.390Z,0
2017-02-14T02:19:18.905Z,0
2017-02-14T02:19:59.397Z,0
2017-02-14T02:20:39.903Z,0
2017-02-14T02:21:20.396Z,0
2017-02-14T02:22:00.896Z,0
2017-02-14T02:22:41.391Z,0
2017-02-14T02:23:21.874Z,0
2017-02-14T02:24:02.370Z,0
2017-02-14T02:24:42.865Z,0
2017-02-14T02:25:23.350Z,0
2017-02-14T02:26:03.843Z,0
2017-02-14T02:26:44.338Z,0
2017-02-14T02:27:24.830Z,0
2017-02-14T02:28:05.318Z,0
2017-02-14T02:28:45.803Z,0
2017-02-14T02:29:26.306Z,0
2017-02-14T02:30:06.795Z,0
2017-02-14T02:30:47.291Z,0
2017-02-14T02:31:27.786Z,0
2017-02-14T02:32:08.278Z,0
2017-02-14T02:32:48.783Z,0
2017-02-14T02:33:29.289Z,0
2017-02-14T02:34:09.789Z,0
2017-02-14T02:34:50.286Z,0
2017-02-14T02:35:30.783Z,0
2017-02-14T02:36:11.285Z,0
2017-02-14T02:36:51.782Z,0
2017-02-14T02:37:32.273Z,0
2017-02-14T02:38:12.755Z,0
2017-02-14T02:38:53.243Z,0
2017-02-14T02:39:33.730Z,0
2017-02-14T02:40:14.225Z,0
2017-02-14T02:40:54.720Z,0
2017-02-14T02:41:35.229Z,0
2017-02-14T02:42:15.727Z,0
2017-02-14T02:42:56.226Z,0
2017-02-14T02:43:36.711Z,0
2017-02-14T02:44:17.205Z,0
2017-02-14T02:44:57.686Z,0
2017-02-14T02:45:38.173Z,0
2017-02-14T02:46:18.682Z,0
2017-02-14T02:46:59.156Z,0
2017-02-14T02:47:39.650Z,0
2017-02-14T02:48:20.158Z,0
2017-02-14T02:49:00.664Z,0
2017-02-14T02:49:41.157Z,0
2017-02-14T02:50:21.642Z,0
2017-02-14T02:51:02.124Z,0
2017-02-14T02:51:42.619Z,0
2017-02-14T02:52:23.112Z,0
2017-02-14T02:53:03.614Z,0
2017-02-14T02:53:44.111Z,0
2017-02-14T02:54:24.600Z,0
2017-02-14T02:55:05.086Z,0
2017-02-14T02:55:45.568Z,0
2017-02-14T02:56:26.062Z,0
2017-02-14T02:57:06.555Z,0
2017-02-14T02:59:34.532Z,0
2017-02-14T03:00:15.013Z,0
2017-02-14T03:00:55.502Z,0
2017-02-14T03:01:35.977Z,0
2017-02-14T03:02:16.467Z,0
2017-02-14T03:02:56.973Z,0
2017-02-14T03:03:37.462Z,0
2017-02-14T03:04:17.947Z,0
2017-02-14T03:04:58.433Z,0
2017-02-14T03:05:38.931Z,0
2017-02-14T03:06:19.418Z,0
2017-02-14T03:06:59.913Z,0
2017-02-14T03:07:40.414Z,0
2017-02-14T03:08:20.903Z,0
2017-02-14T03:09:01.387Z,0
2017-02-14T03:09:41.870Z,0
2017-02-14T03:10:22.363Z,0
2017-02-14T03:11:02.861Z,0
2017-02-14T03:11:43.349Z,0
2017-02-14T03:12:23.860Z,0
2017-02-14T03:13:04.353Z,0
2017-02-14T03:13:44.837Z,0
2017-02-14T03:14:25.316Z,0
2017-02-14T03:15:05.813Z,0
2017-02-14T03:15:46.302Z,0
2017-02-14T03:16:26.794Z,0
2017-02-14T03:17:07.299Z,0
2017-02-14T03:17:47.797Z,0
2017-02-14T03:18:28.280Z,0
2017-02-14T03:19:08.770Z,0
2017-02-14T03:19:49.257Z,0
2017-02-14T03:20:29.752Z,0
2017-02-14T03:21:10.241Z,0
2017-02-14T03:21:50.751Z,0
2017-02-14T03:22:31.242Z,0
2017-02-14T03:23:11.729Z,0
2017-02-14T03:23:52.235Z,0
2017-02-14T03:24:32.724Z,0
2017-02-14T03:25:13.203Z,0
2017-02-14T03:25:53.691Z,0
2017-02-14T03:26:34.199Z,0
2017-02-14T03:27:14.812Z,0
2017-02-14T03:27:55.298Z,0
2017-02-14T03:28:35.795Z,0
2017-02-14T03:29:16.294Z,0
2017-02-14T03:29:56.808Z,0
2017-02-14T03:30:37.271Z,0
2017-02-14T03:31:17.749Z,0
2017-02-14T03:31:58.267Z,0
2017-02-14T03:32:38.746Z,0
2017-02-14T03:33:19.237Z,0
2017-02-14T03:33:59.735Z,0
2017-02-14T03:34:40.213Z,0
2017-02-14T03:35:20.740Z,0
2017-02-14T03:36:01.226Z,0
2017-02-14T03:36:41.737Z,0
2017-02-14T03:37:22.223Z,0
2017-02-14T03:38:02.708Z,0
2017-02-14T03:38:43.189Z,0
2017-02-14T03:39:23.683Z,0
2017-02-14T03:40:04.180Z,0
2017-02-14T03:40:44.668Z,0
2017-02-14T03:41:25.156Z,0
2017-02-14T03:42:05.644Z,0
2017-02-14T03:42:46.147Z,0
2017-02-14T03:43:26.645Z,0
2017-02-14T03:44:07.135Z,0
2017-02-14T03:44:47.626Z,0
2017-02-14T03:45:28.122Z,0
2017-02-14T03:46:08.623Z,0
2017-02-14T03:46:49.125Z,0
2017-02-14T03:47:29.626Z,0
2017-02-14T03:48:10.121Z,0
2017-02-14T03:48:50.624Z,0
2017-02-14T03:49:31.244Z,0
2017-02-14T03:50:11.743Z,0
2017-02-14T03:50:52.244Z,0
2017-02-14T03:51:33.552Z,0
2017-02-14T03:52:14.031Z,0
2017-02-14T03:52:54.522Z,0
2017-02-14T03:53:35.021Z,0
2017-02-14T03:54:15.502Z,0
2017-02-14T03:54:55.989Z,0
2017-02-14T03:55:36.498Z,0
2017-02-14T03:56:16.983Z,0
2017-02-14T03:56:57.474Z,0
2017-02-14T03:57:37.960Z,0
2017-02-14T03:58:18.449Z,0
2017-02-14T03:58:58.957Z,0
2017-02-14T03:59:39.442Z,0
2017-02-14T04:00:19.934Z,0
2017-02-14T04:01:00.430Z,0
2017-02-14T04:01:40.917Z,0
2017-02-14T04:02:21.407Z,0
2017-02-14T04:03:01.884Z,0
2017-02-14T04:03:42.364Z,0
2017-02-14T04:04:22.854Z,0
2017-02-14T04:05:03.350Z,0
2017-02-14T04:05:43.840Z,0
2017-02-14T04:06:24.327Z,0
2017-02-14T04:07:04.816Z,0
2017-02-14T04:07:45.308Z,0
2017-02-14T04:08:25.817Z,0
2017-02-14T04:09:06.324Z,0
2017-02-14T04:09:46.807Z,0
2017-02-14T04:10:27.295Z,0
2017-02-14T04:11:07.778Z,0
2017-02-14T04:11:48.281Z,0
2017-02-14T04:12:28.767Z,0
2017-02-14T04:13:09.248Z,0
2017-02-14T04:13:49.750Z,0
2017-02-14T04:14:30.261Z,0
2017-02-14T04:15:10.762Z,0
2017-02-14T04:15:51.257Z,0
2017-02-14T04:16:31.768Z,0
2017-02-14T04:17:12.253Z,0
2017-02-14T04:17:52.738Z,0
2017-02-14T04:18:33.229Z,0
2017-02-14T04:19:13.731Z,0
2017-02-14T04:19:54.214Z,0
2017-02-14T04:20:34.711Z,0
2017-02-14T04:21:15.206Z,0
2017-02-14T04:21:55.694Z,0
2017-02-14T04:22:36.203Z,0
2017-02-14T04:23:16.679Z,0
2017-02-14T04:23:57.170Z,0
2017-02-14T04:24:37.657Z,0
2017-02-14T04:25:18.139Z,0
2017-02-14T04:25:58.627Z,0
2017-02-14T04:26:39.119Z,0
2017-02-14T04:27:19.620Z,0
2017-02-14T04:28:00.112Z,0
2017-02-14T04:28:40.616Z,0
2017-02-14T04:29:21.111Z,0
2017-02-14T04:30:01.587Z,0
2017-02-14T04:30:42.080Z,0
2017-02-14T04:31:22.595Z,0
2017-02-14T04:32:03.096Z,0
2017-02-14T04:32:43.583Z,0
2017-02-14T04:33:24.077Z,0
2017-02-14T04:34:04.586Z,0
2017-02-14T04:34:45.073Z,0
2017-02-14T04:35:25.575Z,0
2017-02-14T04:36:06.059Z,0
2017-02-14T04:36:46.545Z,0
2017-02-14T04:37:27.029Z,0
2017-02-14T04:38:07.513Z,0
2017-02-14T04:38:48.007Z,0
2017-02-14T04:39:28.502Z,0
2017-02-14T04:40:08.991Z,0
2017-02-14T04:40:49.480Z,0
2017-02-14T04:41:29.987Z,0
2017-02-14T04:42:10.473Z,0
2017-02-14T04:42:50.959Z,0
2017-02-14T04:43:31.441Z,0
2017-02-14T04:44:11.932Z,0
2017-02-14T04:44:52.427Z,0
2017-02-14T04:45:32.920Z,0
2017-02-14T04:46:13.405Z,0
2017-02-14T04:46:53.898Z,0
2017-02-14T04:47:34.399Z,0
2017-02-14T04:48:14.887Z,0
2017-02-14T04:48:55.365Z,0
2017-02-14T04:49:35.852Z,0
2017-02-14T04:50:16.334Z,0
2017-02-14T04:50:56.835Z,0
2017-02-14T04:51:37.320Z,0
2017-02-14T04:52:17.812Z,0
2017-02-14T04:52:58.428Z,0
2017-02-14T04:53:38.915Z,0
2017-02-14T04:54:19.422Z,0
2017-02-14T04:54:59.925Z,0
2017-02-14T04:55:40.419Z,0
2017-02-14T04:56:20.914Z,0
2017-02-14T04:57:01.426Z,0
2017-02-14T04:57:41.915Z,0
2017-02-14T04:58:22.420Z,0
2017-02-14T04:59:02.908Z,0
2017-02-14T04:59:43.412Z,0
2017-02-14T05:00:23.918Z,0
2017-02-14T05:01:04.417Z,0
2017-02-14T05:01:44.903Z,0
2017-02-14T05:02:25.392Z,0
2017-02-14T05:03:05.879Z,0
2017-02-14T05:03:46.367Z,0
2017-02-14T05:04:26.859Z,0
2017-02-14T05:05:07.359Z,0
2017-02-14T05:05:47.862Z,0
2017-02-14T05:06:28.350Z,0
2017-02-14T05:07:08.841Z,0
2017-02-14T05:07:49.357Z,0
2017-02-14T05:08:29.854Z,0
2017-02-14T05:09:10.345Z,0
2017-02-14T05:09:50.832Z,0
2017-02-14T05:10:31.321Z,0
2017-02-14T05:11:11.809Z,0
2017-02-14T05:11:52.302Z,0
2017-02-14T05:12:32.794Z,0
2017-02-14T05:13:13.278Z,0
2017-02-14T05:13:53.761Z,0
2017-02-14T05:14:34.256Z,0
2017-02-14T05:15:14.748Z,0
2017-02-14T05:15:55.243Z,0
2017-02-14T05:16:35.731Z,0
2017-02-14T05:17:16.238Z,0
2017-02-14T05:17:56.725Z,0
2017-02-14T05:18:37.207Z,0
2017-02-14T05:19:17.718Z,0
2017-02-14T05:19:58.201Z,0
2017-02-14T05:20:38.693Z,0
2017-02-14T05:21:19.191Z,0
2017-02-14T05:21:59.683Z,0
2017-02-14T05:22:40.173Z,0
2017-02-14T05:23:20.685Z,0
2017-02-14T05:24:01.188Z,0
2017-02-14T05:24:41.679Z,0
2017-02-14T05:25:22.166Z,0
2017-02-14T05:26:02.653Z,0
2017-02-14T05:26:43.157Z,0
2017-02-14T05:27:23.643Z,0
2017-02-14T05:28:04.118Z,0
2017-02-14T05:28:44.611Z,0
2017-02-14T05:29:25.098Z,0
2017-02-14T05:30:05.581Z,0
2017-02-14T05:30:46.082Z,0
2017-02-14T05:31:26.572Z,0
2017-02-14T05:32:07.081Z,0
2017-02-14T05:32:47.577Z,0
2017-02-14T05:33:28.205Z,0
2017-02-14T05:34:08.669Z,0
2017-02-14T05:34:49.157Z,0
2017-02-14T05:35:29.639Z,0
2017-02-14T05:36:10.130Z,0
2017-02-14T05:36:50.628Z,0
2017-02-14T05:37:31.123Z,0
2017-02-14T05:38:11.626Z,0
2017-02-14T05:38:52.123Z,0
2017-02-14T05:39:32.622Z,0
2017-02-14T05:40:13.118Z,0
2017-02-14T05:40:53.607Z,0
2017-02-14T05:41:34.099Z,0
2017-02-14T05:42:14.592Z,0
2017-02-14T05:42:55.111Z,0
2017-02-14T05:43:35.575Z,0
2017-02-14T05:44:16.068Z,0
2017-02-14T05:44:56.560Z,0
2017-02-14T05:45:37.043Z,0
2017-02-14T05:46:17.528Z,0
2017-02-14T05:46:58.014Z,0
2017-02-14T05:47:38.516Z,0
2017-02-14T05:48:19.004Z,0
2017-02-14T05:48:59.495Z,0
2017-02-14T05:49:39.975Z,0
2017-02-14T05:50:20.455Z,0
2017-02-14T05:51:00.936Z,0
2017-02-14T05:51:41.428Z,0
2017-02-14T05:52:21.929Z,0
2017-02-14T05:53:02.415Z,0
2017-02-14T05:53:42.909Z,0
2017-02-14T05:54:23.409Z,0
2017-02-14T05:55:03.897Z,0
2017-02-14T05:55:44.382Z,0
2017-02-14T05:56:24.868Z,0
2017-02-14T05:57:05.357Z,0
2017-02-14T05:57:45.861Z,0
2017-02-14T05:58:26.339Z,0
2017-02-14T05:59:06.857Z,0
2017-02-14T05:59:47.342Z,0
2017-02-14T06:00:27.825Z,0
2017-02-14T06:01:08.311Z,0
2017-02-14T06:01:48.818Z,0
2017-02-14T06:02:29.302Z,0
2017-02-14T06:03:09.779Z,0
2017-02-14T06:03:50.285Z,0
2017-02-14T06:04:30.785Z,0
2017-02-14T06:05:11.272Z,0
2017-02-14T06:05:51.754Z,0
2017-02-14T06:06:32.248Z,0
2017-02-14T06:07:12.744Z,0
2017-02-14T06:07:53.241Z,0
2017-02-14T06:08:33.742Z,0
2017-02-14T06:09:14.220Z,0
2017-02-14T06:09:54.705Z,0
2017-02-14T06:10:35.196Z,0
2017-02-14T06:11:15.690Z,0
2017-02-14T06:11:56.193Z,0
2017-02-14T06:12:36.680Z,0
2017-02-14T06:13:17.193Z,0
2017-02-14T06:13:57.688Z,0
2017-02-14T06:14:38.295Z,0
2017-02-14T06:15:18.789Z,0
2017-02-14T06:15:59.290Z,0
2017-02-14T06:16:39.783Z,4
2017-02-14T06:17:20.298Z,4
2017-02-14T06:18:00.771Z,4
2017-02-14T06:18:41.260Z,4
2017-02-14T06:19:21.740Z,4
2017-02-14T06:20:02.234Z,0
2017-02-14T06:20:42.732Z,4
2017-02-14T06:21:23.223Z,4
2017-02-14T06:22:03.734Z,4
2017-02-14T06:22:44.282Z,4
2017-02-14T06:23:24.779Z,8
2017-02-14T06:24:05.280Z,4
2017-02-14T06:24:45.764Z,4
2017-02-14T06:25:26.282Z,8
2017-02-14T06:26:06.775Z,8
2017-02-14T06:26:47.281Z,8
2017-02-14T06:27:27.764Z,8
2017-02-14T06:28:08.251Z,12
2017-02-14T06:28:48.741Z,8
2017-02-14T06:29:29.246Z,12
2017-02-14T06:30:09.732Z,12
2017-02-14T06:30:50.240Z,12
2017-02-14T06:31:30.727Z,16
2017-02-14T06:32:11.222Z,12
2017-02-14T06:32:51.722Z,16
2017-02-14T06:33:32.221Z,20
2017-02-14T06:34:12.723Z,16
2017-02-14T06:34:53.217Z,20
2017-02-14T06:35:33.718Z,20
2017-02-14T06:36:14.217Z,24
2017-02-14T06:36:54.716Z,24
2017-02-14T06:37:35.244Z,24
2017-02-14T06:38:15.757Z,24
2017-02-14T06:38:56.232Z,28
2017-02-14T06:39:36.720Z,28
2017-02-14T06:40:17.215Z,32
2017-02-14T06:40:57.710Z,32
2017-02-14T06:41:38.206Z,36
2017-02-14T06:42:18.709Z,36
2017-02-14T06:42:59.194Z,40
2017-02-14T06:43:39.687Z,40
2017-02-14T06:44:20.177Z,44
2017-02-14T06:45:00.675Z,44
2017-02-14T06:45:41.192Z,48
2017-02-14T06:46:21.649Z,48
2017-02-14T06:47:02.160Z,52
2017-02-14T06:47:42.650Z,56
2017-02-14T06:48:23.131Z,56
2017-02-14T06:49:03.612Z,60
2017-02-14T06:49:44.092Z,60
2017-02-14T06:50:24.576Z,64
2017-02-14T06:51:05.057Z,68
2017-02-14T06:51:45.574Z,72
2017-02-14T06:52:26.064Z,72
2017-02-14T06:53:06.550Z,76
2017-02-14T06:53:47.048Z,76
2017-02-14T06:54:27.548Z,84
2017-02-14T06:55:08.048Z,88
2017-02-14T06:55:48.534Z,88
2017-02-14T06:56:29.010Z,92
2017-02-14T06:57:09.505Z,96
2017-02-14T06:57:49.996Z,100
2017-02-14T06:58:30.498Z,104
2017-02-14T06:59:10.984Z,108
2017-02-14T06:59:51.501Z,112
2017-02-14T07:00:31.995Z,116
2017-02-14T07:01:12.498Z,120
2017-02-14T07:01:52.969Z,124
2017-02-14T07:02:33.460Z,128
2017-02-14T07:03:13.949Z,136
2017-02-14T07:03:54.462Z,140
2017-02-14T07:04:34.940Z,144
2017-02-14T07:05:15.434Z,144
2017-02-14T07:05:55.953Z,152
2017-02-14T07:06:36.454Z,156
2017-02-14T07:07:16.957Z,164
2017-02-14T07:07:57.445Z,168
2017-02-14T07:08:37.959Z,168
2017-02-14T07:09:18.446Z,172
2017-02-14T07:09:58.932Z,180
2017-02-14T07:10:39.427Z,184
2017-02-14T07:11:19.925Z,188
2017-02-14T07:12:00.419Z,192
2017-02-14T07:12:40.934Z,200
2017-02-14T07:13:21.394Z,204
2017-02-14T07:14:01.894Z,212
2017-02-14T07:14:42.393Z,224
2017-02-14T07:15:22.889Z,228
2017-02-14T07:16:03.375Z,236
2017-02-14T07:16:43.858Z,240
2017-02-14T07:17:24.379Z,248
2017-02-14T07:18:04.868Z,248
2017-02-14T07:18:45.385Z,260
2017-02-14T07:19:25.860Z,264
2017-02-14T07:20:06.351Z,272
2017-02-14T07:20:46.856Z,280
2017-02-14T07:21:27.351Z,288
2017-02-14T07:22:07.844Z,296
2017-02-14T07:22:48.328Z,308
2017-02-14T07:23:28.820Z,320
2017-02-14T07:24:09.313Z,328
2017-02-14T07:24:49.823Z,336
2017-02-14T07:25:30.347Z,344
2017-02-14T07:26:10.853Z,352
2017-02-14T07:26:51.361Z,360
2017-02-14T07:27:31.841Z,376
2017-02-14T07:28:12.329Z,388
2017-02-14T07:28:52.809Z,396
2017-02-14T07:29:33.295Z,404
2017-02-14T07:30:13.791Z,408
2017-02-14T07:30:54.305Z,420
2017-02-14T07:31:34.810Z,436
2017-02-14T07:32:15.293Z,444
2017-02-14T07:32:55.789Z,460
2017-02-14T07:33:36.383Z,472
2017-02-14T07:34:16.871Z,484
2017-02-14T07:34:57.359Z,504
2017-02-14T07:35:37.843Z,524
2017-02-14T07:36:18.326Z,536
2017-02-14T07:36:58.812Z,552
2017-02-14T07:37:39.318Z,568
2017-02-14T07:38:19.810Z,588
2017-02-14T07:39:00.301Z,592
2017-02-14T07:39:40.808Z,612
2017-02-14T07:40:21.323Z,608
2017-02-14T07:41:01.821Z,624
2017-02-14T07:41:42.322Z,644
2017-02-14T07:42:22.804Z,660
2017-02-14T07:43:03.298Z,672
2017-02-14T07:43:43.795Z,672
2017-02-14T07:44:24.290Z,672
2017-02-14T07:45:04.795Z,696
2017-02-14T07:45:45.516Z,700
2017-02-14T07:46:26.004Z,712
2017-02-14T07:47:06.496Z,724
2017-02-14T07:47:46.998Z,728
2017-02-14T07:48:27.653Z,736
2017-02-14T07:49:08.141Z,756
2017-02-14T07:49:48.647Z,760
2017-02-14T07:50:29.150Z,772
2017-02-14T07:51:09.650Z,768
2017-02-14T07:51:50.147Z,792
2017-02-14T07:52:30.650Z,804
2017-02-14T07:53:11.135Z,808
2017-02-14T07:53:51.623Z,816
2017-02-14T07:54:32.128Z,824
2017-02-14T07:55:12.594Z,832
2017-02-14T07:55:53.093Z,848
2017-02-14T07:56:33.583Z,848
2017-02-14T07:57:14.094Z,868
2017-02-14T07:57:54.571Z,884
2017-02-14T07:58:35.065Z,900
2017-02-14T07:59:15.547Z,908
2017-02-14T07:59:56.051Z,912
2017-02-14T08:00:36.539Z,928
2017-02-14T08:01:17.030Z,952
2017-02-14T08:01:57.518Z,944
2017-02-14T08:02:38.028Z,960
2017-02-14T08:03:18.537Z,996
2017-02-14T08:03:59.035Z,1024
2017-02-14T08:04:39.538Z,1036
2017-02-14T08:05:20.023Z,1044
2017-02-14T08:06:00.508Z,1068
2017-02-14T08:06:40.996Z,1076
2017-02-14T08:07:21.475Z,1104
2017-02-14T08:08:01.976Z,1116
2017-02-14T08:08:42.471Z,1140
2017-02-14T08:09:22.976Z,1168
2017-02-14T08:10:03.478Z,1164
2017-02-14T08:10:43.978Z,1160
2017-02-14T08:11:24.479Z,1160
2017-02-14T08:12:04.976Z,1180
2017-02-14T08:12:45.455Z,1196
2017-02-14T08:13:25.939Z,1188
2017-02-14T08:14:06.427Z,1216
2017-02-14T08:14:46.925Z,1224
2017-02-14T08:15:27.418Z,1244
2017-02-14T08:16:07.910Z,1224
2017-02-14T08:16:48.398Z,1252
2017-02-14T08:17:28.889Z,1252
2017-02-14T08:18:09.387Z,1276
2017-02-14T08:18:49.873Z,1256
2017-02-14T08:19:30.362Z,1276
2017-02-14T08:20:11.499Z,1268
2017-02-14T08:20:51.369Z,1256
2017-02-14T08:21:31.866Z,1308
2017-02-14T08:22:12.361Z,1300
2017-02-14T08:22:52.860Z,1324
2017-02-14T08:23:33.355Z,1324
2017-02-14T08:24:13.839Z,1336
2017-02-14T08:24:54.332Z,1368
2017-02-14T08:25:34.821Z,1384
2017-02-14T08:26:15.317Z,1408
2017-02-14T08:26:55.808Z,1388
2017-02-14T08:27:36.315Z,1380
2017-02-14T08:28:16.806Z,1424
2017-02-14T08:28:57.299Z,1424
2017-02-14T08:29:37.802Z,1460
2017-02-14T08:30:18.305Z,1448
2017-02-14T08:30:58.794Z,1424
2017-02-14T08:31:39.927Z,1452
2017-02-14T08:32:20.419Z,1488
2017-02-14T08:33:00.921Z,1468
2017-02-14T08:33:41.406Z,1484
2017-02-14T08:34:21.912Z,1500
2017-02-14T08:35:02.403Z,1476
2017-02-14T08:35:42.891Z,1496
2017-02-14T08:36:23.372Z,1540
2017-02-14T08:37:03.865Z,1492
2017-02-14T08:37:44.359Z,1548
2017-02-14T08:38:24.851Z,1560
2017-02-14T08:39:05.333Z,1528
2017-02-14T08:39:45.828Z,1520
2017-02-14T08:40:26.323Z,1548
2017-02-14T08:41:06.811Z,1488
2017-02-14T08:41:47.307Z,1504
2017-02-14T08:42:27.807Z,1556
2017-02-14T08:43:08.307Z,1568
2017-02-14T08:43:48.789Z,1540
2017-02-14T08:44:29.293Z,1568
2017-02-14T08:45:09.780Z,1560
2017-02-14T08:45:50.278Z,1608
2017-02-14T08:46:30.765Z,1632
2017-02-14T08:47:11.258Z,1620
2017-02-14T08:47:51.745Z,1620
2017-02-14T08:48:32.286Z,1644
2017-02-14T08:49:12.725Z,1664
2017-02-14T08:49:53.228Z,1648
2017-02-14T08:50:34.636Z,1656
2017-02-14T08:51:15.135Z,1688
2017-02-14T08:51:55.632Z,1712
2017-02-14T08:52:36.138Z,1752
2017-02-14T08:53:16.624Z,1692
2017-02-14T08:53:57.117Z,1716
2017-02-14T08:54:37.621Z,1704
2017-02-14T08:55:18.105Z,1720
2017-02-14T08:55:58.593Z,1720
2017-02-14T08:56:39.074Z,1760
2017-02-14T08:57:19.592Z,1740
2017-02-14T08:58:00.107Z,1708
2017-02-14T08:58:40.607Z,1720
2017-02-14T08:59:21.088Z,1708
2017-02-14T09:00:01.612Z,1740
2017-02-14T09:00:42.109Z,1708
2017-02-14T09:01:22.618Z,1680
2017-02-14T09:02:03.099Z,1744
2017-02-14T09:02:43.584Z,1724
2017-02-14T09:03:24.071Z,1744
2017-02-14T09:04:04.572Z,1736
2017-02-14T09:04:45.063Z,1788
2017-02-14T09:05:25.573Z,1736
2017-02-14T09:06:06.059Z,1752
2017-02-14T09:06:46.577Z,1760
2017-02-14T09:07:27.073Z,1768
2017-02-14T09:08:07.566Z,1736
2017-02-14T09:08:48.057Z,1768
2017-02-14T09:09:28.538Z,1732
2017-02-14T09:10:09.025Z,1720
2017-02-14T09:10:49.525Z,1748
2017-02-14T09:11:30.015Z,1792
2017-02-14T09:12:10.506Z,1748
2017-02-14T09:12:51.015Z,1728
2017-02-14T09:13:31.507Z,1744
2017-02-14T09:14:12.013Z,1728
2017-02-14T09:14:52.501Z,1732
2017-02-14T09:15:33.021Z,1768
2017-02-14T09:16:13.512Z,1728
2017-02-14T09:16:54.008Z,1744
2017-02-14T09:17:34.515Z,1736
2017-02-14T09:18:15.007Z,1732
2017-02-14T09:18:55.514Z,1748
2017-02-14T09:19:36.005Z,1740
2017-02-14T09:20:16.497Z,1740
2017-02-14T09:20:57.007Z,1756
2017-02-14T09:21:37.495Z,1760
2017-02-14T09:22:18.004Z,1752
2017-02-14T09:22:58.497Z,1784
2017-02-14T09:23:38.987Z,1792
2017-02-14T09:24:19.529Z,1768
2017-02-14T09:25:00.010Z,1756
2017-02-14T09:25:40.494Z,1772
2017-02-14T09:26:21.020Z,1736
2017-02-14T09:27:01.527Z,1700
2017-02-14T09:27:42.032Z,1768
2017-02-14T09:28:22.517Z,1760
2017-02-14T09:29:03.015Z,1736
2017-02-14T09:29:43.523Z,1756
2017-02-14T09:30:24.032Z,1764
2017-02-14T09:31:04.516Z,1780
2017-02-14T09:31:45.008Z,1772
2017-02-14T09:32:25.486Z,1760
2017-02-14T09:33:05.994Z,1756
2017-02-14T09:33:46.501Z,1776
2017-02-14T09:34:26.995Z,1804
2017-02-14T09:35:07.483Z,1780
2017-02-14T09:35:48.026Z,1764
2017-02-14T09:36:28.518Z,1748
2017-02-14T09:37:09.106Z,1768
2017-02-14T09:37:49.613Z,1748
2017-02-14T09:38:30.122Z,1720
2017-02-14T09:39:10.619Z,1748
2017-02-14T09:39:51.125Z,1732
2017-02-14T09:40:31.613Z,1780
2017-02-14T09:41:12.105Z,1752
2017-02-14T09:41:52.611Z,1764
2017-02-14T09:42:33.101Z,1804
2017-02-14T09:43:13.625Z,1824